sensor_id;sensor_type;location;lat;lon;timestamp;temperature;humidity
13798;DHT22;6970;51.340;3.240;2023-09-30T00:00:29;14.90;99.90
13798;DHT22;6970;51.340;3.240;2023-09-30T00:02:56;14.90;99.90
13798;DHT22;6970;51.340;3.240;2023-09-30T00:05:23;14.90;99.90
13798;DHT22;6970;51.340;3.240;2023-09-30T00:07:51;14.90;99.90
13798;DHT22;6970;51.340;3.240;2023-09-30T00:10:18;14.90;99.90
13798;DHT22;6970;51.340;3.240;2023-09-30T00:12:46;14.90;99.90
13798;DHT22;6970;51.340;3.240;2023-09-30T00:15:14;14.80;99.90
13798;DHT22;6970;51.340;3.240;2023-09-30T00:17:41;14.80;99.90
13798;DHT22;6970;51.340;3.240;2023-09-30T00:20:09;14.80;99.90
13798;DHT22;6970;51.340;3.240;2023-09-30T00:22:39;14.80;99.90
13798;DHT22;6970;51.340;3.240;2023-09-30T00:25:12;14.70;99.90
13798;DHT22;6970;51.340;3.240;2023-09-30T00:27:42;14.70;99.90
13798;DHT22;6970;51.340;3.240;2023-09-30T00:30:11;14.70;99.90
13798;DHT22;6970;51.340;3.240;2023-09-30T00:32:41;14.70;99.90
13798;DHT22;6970;51.340;3.240;2023-09-30T00:35:11;14.70;99.90
13798;DHT22;6970;51.340;3.240;2023-09-30T00:37:38;14.70;99.90
13798;DHT22;6970;51.340;3.240;2023-09-30T00:40:09;14.70;99.90
13798;DHT22;6970;51.340;3.240;2023-09-30T00:42:41;14.70;99.90
13798;DHT22;6970;51.340;3.240;2023-09-30T00:45:15;14.60;99.90
13798;DHT22;6970;51.340;3.240;2023-09-30T00:47:42;14.60;99.90
13798;DHT22;6970;51.340;3.240;2023-09-30T00:50:12;14.60;99.90
13798;DHT22;6970;51.340;3.240;2023-09-30T00:52:40;14.60;99.90
13798;DHT22;6970;51.340;3.240;2023-09-30T00:55:12;14.60;99.90
13798;DHT22;6970;51.340;3.240;2023-09-30T00:57:41;14.60;99.90
13798;DHT22;6970;51.340;3.240;2023-09-30T01:00:10;14.60;99.90
13798;DHT22;6970;51.340;3.240;2023-09-30T01:02:45;14.60;99.90
13798;DHT22;6970;51.340;3.240;2023-09-30T01:05:14;14.50;99.90
13798;DHT22;6970;51.340;3.240;2023-09-30T01:07:41;14.50;99.90
13798;DHT22;6970;51.340;3.240;2023-09-30T01:10:14;14.50;99.90
13798;DHT22;6970;51.340;3.240;2023-09-30T01:12:41;14.50;99.90
13798;DHT22;6970;51.340;3.240;2023-09-30T01:15:15;14.50;99.90
13798;DHT22;6970;51.340;3.240;2023-09-30T01:17:43;14.50;99.90
13798;DHT22;6970;51.340;3.240;2023-09-30T01:20:16;14.50;99.90
13798;DHT22;6970;51.340;3.240;2023-09-30T01:22:49;14.40;99.90
13798;DHT22;6970;51.340;3.240;2023-09-30T01:25:19;14.40;99.90
13798;DHT22;6970;51.340;3.240;2023-09-30T01:27:46;14.50;99.90
13798;DHT22;6970;51.340;3.240;2023-09-30T01:30:16;14.40;99.90
13798;DHT22;6970;51.340;3.240;2023-09-30T01:32:47;14.50;99.90
13798;DHT22;6970;51.340;3.240;2023-09-30T01:35:14;14.40;99.90
13798;DHT22;6970;51.340;3.240;2023-09-30T01:37:44;14.40;99.90
13798;DHT22;6970;51.340;3.240;2023-09-30T01:40:15;14.40;99.90
13798;DHT22;6970;51.340;3.240;2023-09-30T01:42:42;14.50;99.90
13798;DHT22;6970;51.340;3.240;2023-09-30T01:45:11;14.50;99.90
13798;DHT22;6970;51.340;3.240;2023-09-30T01:47:38;14.50;99.90
13798;DHT22;6970;51.340;3.240;2023-09-30T01:50:11;14.40;99.90
13798;DHT22;6970;51.340;3.240;2023-09-30T01:52:41;14.40;99.90
13798;DHT22;6970;51.340;3.240;2023-09-30T01:55:08;14.40;99.90
13798;DHT22;6970;51.340;3.240;2023-09-30T01:57:37;14.50;99.90
13798;DHT22;6970;51.340;3.240;2023-09-30T02:00:04;14.50;99.90
13798;DHT22;6970;51.340;3.240;2023-09-30T02:02:35;14.50;99.90
13798;DHT22;6970;51.340;3.240;2023-09-30T02:05:04;14.50;99.90
13798;DHT22;6970;51.340;3.240;2023-09-30T02:07:31;14.50;99.90
13798;DHT22;6970;51.340;3.240;2023-09-30T02:10:01;14.50;99.90
13798;DHT22;6970;51.340;3.240;2023-09-30T02:12:29;14.50;99.90
13798;DHT22;6970;51.340;3.240;2023-09-30T02:14:58;14.50;99.90
13798;DHT22;6970;51.340;3.240;2023-09-30T02:17:26;14.50;99.90
13798;DHT22;6970;51.340;3.240;2023-09-30T02:19:54;14.60;99.90
13798;DHT22;6970;51.340;3.240;2023-09-30T02:22:23;14.50;99.90
13798;DHT22;6970;51.340;3.240;2023-09-30T02:24:51;14.50;99.90
13798;DHT22;6970;51.340;3.240;2023-09-30T02:27:20;14.50;99.90
13798;DHT22;6970;51.340;3.240;2023-09-30T02:29:50;14.50;99.90
13798;DHT22;6970;51.340;3.240;2023-09-30T02:32:19;14.50;99.90
13798;DHT22;6970;51.340;3.240;2023-09-30T02:34:49;14.50;99.90
13798;DHT22;6970;51.340;3.240;2023-09-30T02:37:19;14.50;99.90
13798;DHT22;6970;51.340;3.240;2023-09-30T02:39:49;14.50;99.90
13798;DHT22;6970;51.340;3.240;2023-09-30T02:42:19;14.50;99.90
13798;DHT22;6970;51.340;3.240;2023-09-30T02:44:52;14.50;99.90
13798;DHT22;6970;51.340;3.240;2023-09-30T02:47:20;14.50;99.90
13798;DHT22;6970;51.340;3.240;2023-09-30T02:49:49;14.50;99.90
13798;DHT22;6970;51.340;3.240;2023-09-30T02:52:18;14.40;99.90
13798;DHT22;6970;51.340;3.240;2023-09-30T02:54:47;14.40;99.90
13798;DHT22;6970;51.340;3.240;2023-09-30T02:57:18;14.40;99.90
13798;DHT22;6970;51.340;3.240;2023-09-30T02:59:49;14.40;99.90
13798;DHT22;6970;51.340;3.240;2023-09-30T03:02:19;14.40;99.90
13798;DHT22;6970;51.340;3.240;2023-09-30T03:04:49;14.40;99.90
13798;DHT22;6970;51.340;3.240;2023-09-30T03:07:22;14.40;99.90
13798;DHT22;6970;51.340;3.240;2023-09-30T03:09:50;14.40;99.90
13798;DHT22;6970;51.340;3.240;2023-09-30T03:12:19;14.40;99.90
13798;DHT22;6970;51.340;3.240;2023-09-30T03:14:50;14.40;99.90
13798;DHT22;6970;51.340;3.240;2023-09-30T03:17:20;14.40;99.90
13798;DHT22;6970;51.340;3.240;2023-09-30T03:19:50;14.30;99.90
13798;DHT22;6970;51.340;3.240;2023-09-30T03:22:17;14.30;99.90
13798;DHT22;6970;51.340;3.240;2023-09-30T03:24:46;14.30;99.90
13798;DHT22;6970;51.340;3.240;2023-09-30T03:27:16;14.30;99.90
13798;DHT22;6970;51.340;3.240;2023-09-30T03:29:43;14.20;99.90
13798;DHT22;6970;51.340;3.240;2023-09-30T03:32:13;14.20;99.90
13798;DHT22;6970;51.340;3.240;2023-09-30T03:34:43;14.20;99.90
13798;DHT22;6970;51.340;3.240;2023-09-30T03:37:14;14.20;99.90
13798;DHT22;6970;51.340;3.240;2023-09-30T03:39:41;14.20;99.90
13798;DHT22;6970;51.340;3.240;2023-09-30T03:42:12;14.20;99.90
13798;DHT22;6970;51.340;3.240;2023-09-30T03:44:41;14.20;99.90
13798;DHT22;6970;51.340;3.240;2023-09-30T03:47:10;14.20;99.90
13798;DHT22;6970;51.340;3.240;2023-09-30T03:49:37;14.20;99.90
13798;DHT22;6970;51.340;3.240;2023-09-30T03:52:09;14.20;99.90
13798;DHT22;6970;51.340;3.240;2023-09-30T03:54:38;14.10;99.90
13798;DHT22;6970;51.340;3.240;2023-09-30T03:57:08;14.20;99.90
13798;DHT22;6970;51.340;3.240;2023-09-30T03:59:38;14.10;99.90
13798;DHT22;6970;51.340;3.240;2023-09-30T04:02:05;14.10;99.90
13798;DHT22;6970;51.340;3.240;2023-09-30T04:04:37;14.10;99.90
13798;DHT22;6970;51.340;3.240;2023-09-30T04:07:04;14.10;99.90
13798;DHT22;6970;51.340;3.240;2023-09-30T04:09:39;14.00;99.90
13798;DHT22;6970;51.340;3.240;2023-09-30T04:12:08;14.00;99.90
13798;DHT22;6970;51.340;3.240;2023-09-30T04:14:37;13.90;99.90
13798;DHT22;6970;51.340;3.240;2023-09-30T04:17:04;13.90;99.90
13798;DHT22;6970;51.340;3.240;2023-09-30T04:19:32;13.90;99.90
13798;DHT22;6970;51.340;3.240;2023-09-30T04:22:00;13.90;99.90
13798;DHT22;6970;51.340;3.240;2023-09-30T04:24:33;13.90;99.90
13798;DHT22;6970;51.340;3.240;2023-09-30T04:27:04;13.90;99.90
13798;DHT22;6970;51.340;3.240;2023-09-30T04:29:36;13.90;99.90
13798;DHT22;6970;51.340;3.240;2023-09-30T04:32:09;13.90;99.90
13798;DHT22;6970;51.340;3.240;2023-09-30T04:34:42;13.80;99.90
13798;DHT22;6970;51.340;3.240;2023-09-30T04:37:15;13.80;99.90
13798;DHT22;6970;51.340;3.240;2023-09-30T04:39:43;13.80;99.90
13798;DHT22;6970;51.340;3.240;2023-09-30T04:42:12;13.80;99.90
13798;DHT22;6970;51.340;3.240;2023-09-30T04:44:42;13.80;99.90
13798;DHT22;6970;51.340;3.240;2023-09-30T04:47:13;13.90;99.90
13798;DHT22;6970;51.340;3.240;2023-09-30T04:49:43;13.80;99.90
13798;DHT22;6970;51.340;3.240;2023-09-30T04:52:15;13.90;99.90
13798;DHT22;6970;51.340;3.240;2023-09-30T04:54:45;13.90;99.90
13798;DHT22;6970;51.340;3.240;2023-09-30T04:57:14;13.90;99.90
13798;DHT22;6970;51.340;3.240;2023-09-30T04:59:44;13.90;99.90
13798;DHT22;6970;51.340;3.240;2023-09-30T05:02:12;13.90;99.90
13798;DHT22;6970;51.340;3.240;2023-09-30T05:04:42;13.80;99.90
13798;DHT22;6970;51.340;3.240;2023-09-30T05:07:13;13.80;99.90
13798;DHT22;6970;51.340;3.240;2023-09-30T05:09:43;13.80;99.90
13798;DHT22;6970;51.340;3.240;2023-09-30T05:12:12;13.80;99.90
13798;DHT22;6970;51.340;3.240;2023-09-30T05:14:40;13.80;99.90
13798;DHT22;6970;51.340;3.240;2023-09-30T05:17:07;13.80;99.90
13798;DHT22;6970;51.340;3.240;2023-09-30T05:19:38;13.80;99.90
13798;DHT22;6970;51.340;3.240;2023-09-30T05:22:08;13.80;99.90
13798;DHT22;6970;51.340;3.240;2023-09-30T05:24:37;13.80;99.90
13798;DHT22;6970;51.340;3.240;2023-09-30T05:27:05;13.80;99.90
13798;DHT22;6970;51.340;3.240;2023-09-30T05:29:35;13.80;99.90
13798;DHT22;6970;51.340;3.240;2023-09-30T05:32:03;13.80;99.90
13798;DHT22;6970;51.340;3.240;2023-09-30T05:34:34;13.80;99.90
13798;DHT22;6970;51.340;3.240;2023-09-30T05:37:02;13.80;99.90
13798;DHT22;6970;51.340;3.240;2023-09-30T05:39:31;13.80;99.90
13798;DHT22;6970;51.340;3.240;2023-09-30T05:42:00;13.80;99.90
13798;DHT22;6970;51.340;3.240;2023-09-30T05:44:31;13.80;99.90
13798;DHT22;6970;51.340;3.240;2023-09-30T05:47:01;13.80;99.90
13798;DHT22;6970;51.340;3.240;2023-09-30T05:49:32;13.80;99.90
13798;DHT22;6970;51.340;3.240;2023-09-30T05:52:02;13.80;99.90
13798;DHT22;6970;51.340;3.240;2023-09-30T05:54:29;13.80;99.90
13798;DHT22;6970;51.340;3.240;2023-09-30T05:56:58;13.80;99.90
13798;DHT22;6970;51.340;3.240;2023-09-30T05:59:28;13.80;99.90
13798;DHT22;6970;51.340;3.240;2023-09-30T06:01:56;13.80;99.90
13798;DHT22;6970;51.340;3.240;2023-09-30T06:04:24;13.70;99.90
13798;DHT22;6970;51.340;3.240;2023-09-30T06:06:51;13.70;99.90
13798;DHT22;6970;51.340;3.240;2023-09-30T06:09:18;13.70;99.90
13798;DHT22;6970;51.340;3.240;2023-09-30T06:11:52;13.80;99.90
13798;DHT22;6970;51.340;3.240;2023-09-30T06:14:19;13.80;99.90
13798;DHT22;6970;51.340;3.240;2023-09-30T06:16:49;13.90;99.90
13798;DHT22;6970;51.340;3.240;2023-09-30T06:19:19;14.00;99.90
13798;DHT22;6970;51.340;3.240;2023-09-30T06:21:51;14.00;99.90
13798;DHT22;6970;51.340;3.240;2023-09-30T06:24:21;14.10;99.90
13798;DHT22;6970;51.340;3.240;2023-09-30T06:26:52;14.20;99.90
13798;DHT22;6970;51.340;3.240;2023-09-30T06:29:20;14.40;99.90
13798;DHT22;6970;51.340;3.240;2023-09-30T06:31:50;14.50;99.90
13798;DHT22;6970;51.340;3.240;2023-09-30T06:34:17;14.70;99.90
13798;DHT22;6970;51.340;3.240;2023-09-30T06:36:44;15.10;99.90
13798;DHT22;6970;51.340;3.240;2023-09-30T06:39:12;15.70;99.90
13798;DHT22;6970;51.340;3.240;2023-09-30T06:41:41;16.30;99.90
13798;DHT22;6970;51.340;3.240;2023-09-30T06:44:08;16.90;99.90
13798;DHT22;6970;51.340;3.240;2023-09-30T06:46:38;17.40;99.90
13798;DHT22;6970;51.340;3.240;2023-09-30T06:49:12;18.10;99.90
13798;DHT22;6970;51.340;3.240;2023-09-30T06:51:42;18.60;99.90
13798;DHT22;6970;51.340;3.240;2023-09-30T06:54:09;19.10;99.90
13798;DHT22;6970;51.340;3.240;2023-09-30T06:56:39;19.60;99.90
13798;DHT22;6970;51.340;3.240;2023-09-30T06:59:09;20.00;99.90
13798;DHT22;6970;51.340;3.240;2023-09-30T07:01:39;20.60;99.90
13798;DHT22;6970;51.340;3.240;2023-09-30T07:04:07;21.10;99.90
13798;DHT22;6970;51.340;3.240;2023-09-30T07:06:37;21.50;99.90
13798;DHT22;6970;51.340;3.240;2023-09-30T07:09:05;21.90;99.90
13798;DHT22;6970;51.340;3.240;2023-09-30T07:11:35;22.40;99.90
13798;DHT22;6970;51.340;3.240;2023-09-30T07:14:02;22.80;99.90
13798;DHT22;6970;51.340;3.240;2023-09-30T07:16:32;23.40;99.90
13798;DHT22;6970;51.340;3.240;2023-09-30T07:19:02;23.90;99.90
13798;DHT22;6970;51.340;3.240;2023-09-30T07:21:35;24.40;99.90
13798;DHT22;6970;51.340;3.240;2023-09-30T07:24:05;25.00;99.90
13798;DHT22;6970;51.340;3.240;2023-09-30T07:26:34;25.70;99.90
13798;DHT22;6970;51.340;3.240;2023-09-30T07:29:04;26.00;99.30
13798;DHT22;6970;51.340;3.240;2023-09-30T07:31:37;26.20;98.30
13798;DHT22;6970;51.340;3.240;2023-09-30T07:34:05;26.40;97.60
13798;DHT22;6970;51.340;3.240;2023-09-30T07:36:33;26.20;96.90
13798;DHT22;6970;51.340;3.240;2023-09-30T07:39:03;26.40;97.20
13798;DHT22;6970;51.340;3.240;2023-09-30T07:41:36;26.60;97.10
13798;DHT22;6970;51.340;3.240;2023-09-30T07:44:08;27.00;96.70
13798;DHT22;6970;51.340;3.240;2023-09-30T07:46:39;27.10;96.10
13798;DHT22;6970;51.340;3.240;2023-09-30T07:49:10;27.10;96.10
13798;DHT22;6970;51.340;3.240;2023-09-30T07:51:38;27.20;95.70
13798;DHT22;6970;51.340;3.240;2023-09-30T07:54:09;27.50;95.80
13798;DHT22;6970;51.340;3.240;2023-09-30T07:57:02;27.90;95.40
13798;DHT22;6970;51.340;3.240;2023-09-30T07:59:35;28.40;94.90
13798;DHT22;6970;51.340;3.240;2023-09-30T08:02:06;28.70;94.10
13798;DHT22;6970;51.340;3.240;2023-09-30T08:04:33;28.80;93.30
13798;DHT22;6970;51.340;3.240;2023-09-30T08:07:02;29.00;93.20
13798;DHT22;6970;51.340;3.240;2023-09-30T08:09:35;29.30;93.20
13798;DHT22;6970;51.340;3.240;2023-09-30T08:12:10;29.70;92.20
13798;DHT22;6970;51.340;3.240;2023-09-30T08:14:40;30.10;92.00
13798;DHT22;6970;51.340;3.240;2023-09-30T08:17:07;30.70;91.70
13798;DHT22;6970;51.340;3.240;2023-09-30T08:19:37;31.10;91.10
13798;DHT22;6970;51.340;3.240;2023-09-30T08:22:06;31.50;90.20
13798;DHT22;6970;51.340;3.240;2023-09-30T08:24:34;31.80;89.60
13798;DHT22;6970;51.340;3.240;2023-09-30T08:27:03;32.20;88.10
13798;DHT22;6970;51.340;3.240;2023-09-30T08:29:34;32.40;86.90
13798;DHT22;6970;51.340;3.240;2023-09-30T08:32:03;32.70;86.30
13798;DHT22;6970;51.340;3.240;2023-09-30T08:34:33;32.90;85.90
13798;DHT22;6970;51.340;3.240;2023-09-30T08:37:00;33.30;84.90
13798;DHT22;6970;51.340;3.240;2023-09-30T08:39:28;33.50;85.00
13798;DHT22;6970;51.340;3.240;2023-09-30T08:41:56;33.60;83.80
13798;DHT22;6970;51.340;3.240;2023-09-30T08:44:24;33.80;83.00
13798;DHT22;6970;51.340;3.240;2023-09-30T08:46:53;33.80;82.70
13798;DHT22;6970;51.340;3.240;2023-09-30T08:49:23;33.70;82.10
13798;DHT22;6970;51.340;3.240;2023-09-30T08:51:55;33.80;82.50
13798;DHT22;6970;51.340;3.240;2023-09-30T08:54:27;34.10;81.10
13798;DHT22;6970;51.340;3.240;2023-09-30T08:56:55;34.00;81.30
13798;DHT22;6970;51.340;3.240;2023-09-30T08:59:23;34.20;80.70
13798;DHT22;6970;51.340;3.240;2023-09-30T09:01:52;34.30;80.40
13798;DHT22;6970;51.340;3.240;2023-09-30T09:04:19;34.40;80.10
13798;DHT22;6970;51.340;3.240;2023-09-30T09:06:53;34.60;79.30
13798;DHT22;6970;51.340;3.240;2023-09-30T09:09:25;34.70;78.00
13798;DHT22;6970;51.340;3.240;2023-09-30T09:11:53;34.90;78.20
13798;DHT22;6970;51.340;3.240;2023-09-30T09:14:46;35.00;78.40
13798;DHT22;6970;51.340;3.240;2023-09-30T09:17:15;35.00;77.60
13798;DHT22;6970;51.340;3.240;2023-09-30T09:19:43;35.20;77.90
13798;DHT22;6970;51.340;3.240;2023-09-30T09:22:10;35.50;77.00
13798;DHT22;6970;51.340;3.240;2023-09-30T09:24:38;35.70;77.00
13798;DHT22;6970;51.340;3.240;2023-09-30T09:27:13;35.90;76.20
13798;DHT22;6970;51.340;3.240;2023-09-30T09:29:46;35.90;74.00
13798;DHT22;6970;51.340;3.240;2023-09-30T09:32:15;36.00;74.70
13798;DHT22;6970;51.340;3.240;2023-09-30T09:35:00;35.60;73.90
13798;DHT22;6970;51.340;3.240;2023-09-30T09:37:27;35.20;74.40
13798;DHT22;6970;51.340;3.240;2023-09-30T09:39:58;35.20;75.10
13798;DHT22;6970;51.340;3.240;2023-09-30T09:42:31;35.40;75.10
13798;DHT22;6970;51.340;3.240;2023-09-30T09:45:04;35.50;73.90
13798;DHT22;6970;51.340;3.240;2023-09-30T09:47:33;35.40;72.50
13798;DHT22;6970;51.340;3.240;2023-09-30T09:50:04;35.50;73.20
13798;DHT22;6970;51.340;3.240;2023-09-30T09:52:35;35.50;72.30
13798;DHT22;6970;51.340;3.240;2023-09-30T09:55:07;35.70;73.10
13798;DHT22;6970;51.340;3.240;2023-09-30T09:57:36;35.70;71.90
13798;DHT22;6970;51.340;3.240;2023-09-30T10:00:07;36.00;72.50
13798;DHT22;6970;51.340;3.240;2023-09-30T10:02:41;36.20;71.30
13798;DHT22;6970;51.340;3.240;2023-09-30T10:05:15;36.10;70.90
13798;DHT22;6970;51.340;3.240;2023-09-30T10:08:00;36.20;69.40
13798;DHT22;6970;51.340;3.240;2023-09-30T10:10:30;36.10;68.30
13798;DHT22;6970;51.340;3.240;2023-09-30T10:13:01;36.00;68.60
13798;DHT22;6970;51.340;3.240;2023-09-30T10:17:59;35.70;69.10
13798;DHT22;6970;51.340;3.240;2023-09-30T10:20:28;35.40;68.80
13798;DHT22;6970;51.340;3.240;2023-09-30T10:23:19;35.10;69.30
13798;DHT22;6970;51.340;3.240;2023-09-30T10:25:47;34.60;70.10
13798;DHT22;6970;51.340;3.240;2023-09-30T10:28:39;34.40;70.90
13798;DHT22;6970;51.340;3.240;2023-09-30T10:31:23;34.30;70.90
13798;DHT22;6970;51.340;3.240;2023-09-30T10:39:03;34.70;67.70
13798;DHT22;6970;51.340;3.240;2023-09-30T10:44:32;34.50;66.00
13798;DHT22;6970;51.340;3.240;2023-09-30T10:47:00;34.20;66.40
13798;DHT22;6970;51.340;3.240;2023-09-30T10:49:30;34.20;67.10
13798;DHT22;6970;51.340;3.240;2023-09-30T10:52:05;34.50;67.40
13798;DHT22;6970;51.340;3.240;2023-09-30T10:54:39;34.50;66.70
13798;DHT22;6970;51.340;3.240;2023-09-30T10:57:06;34.40;66.80
13798;DHT22;6970;51.340;3.240;2023-09-30T10:59:37;34.00;65.20
13798;DHT22;6970;51.340;3.240;2023-09-30T11:02:04;33.90;65.50
13798;DHT22;6970;51.340;3.240;2023-09-30T11:04:50;33.70;64.80
13798;DHT22;6970;51.340;3.240;2023-09-30T11:07:22;33.30;65.80
13798;DHT22;6970;51.340;3.240;2023-09-30T11:09:54;33.10;66.30
13798;DHT22;6970;51.340;3.240;2023-09-30T11:12:22;32.60;65.70
13798;DHT22;6970;51.340;3.240;2023-09-30T11:14:59;31.90;65.90
13798;DHT22;6970;51.340;3.240;2023-09-30T11:17:29;31.50;68.40
13798;DHT22;6970;51.340;3.240;2023-09-30T11:19:57;31.10;68.70
13798;DHT22;6970;51.340;3.240;2023-09-30T11:22:25;30.30;69.20
13798;DHT22;6970;51.340;3.240;2023-09-30T11:24:54;29.40;71.80
13798;DHT22;6970;51.340;3.240;2023-09-30T11:27:24;28.70;72.70
13798;DHT22;6970;51.340;3.240;2023-09-30T11:29:54;28.60;73.90
13798;DHT22;6970;51.340;3.240;2023-09-30T11:32:26;28.60;73.50
13798;DHT22;6970;51.340;3.240;2023-09-30T11:34:56;28.20;73.80
13798;DHT22;6970;51.340;3.240;2023-09-30T11:37:30;28.00;74.80
13798;DHT22;6970;51.340;3.240;2023-09-30T11:40:12;27.80;76.30
13798;DHT22;6970;51.340;3.240;2023-09-30T11:43:06;27.60;76.30
13798;DHT22;6970;51.340;3.240;2023-09-30T11:45:30;27.70;75.90
13798;DHT22;6970;51.340;3.240;2023-09-30T11:47:59;27.50;73.20
13798;DHT22;6970;51.340;3.240;2023-09-30T11:50:45;27.30;73.70
13798;DHT22;6970;51.340;3.240;2023-09-30T11:53:20;27.10;74.70
13798;DHT22;6970;51.340;3.240;2023-09-30T11:55:48;27.10;75.20
13798;DHT22;6970;51.340;3.240;2023-09-30T11:58:19;27.10;75.10
13798;DHT22;6970;51.340;3.240;2023-09-30T12:00:49;27.10;75.10
13798;DHT22;6970;51.340;3.240;2023-09-30T12:03:20;26.90;75.80
13798;DHT22;6970;51.340;3.240;2023-09-30T12:05:49;26.80;76.80
13798;DHT22;6970;51.340;3.240;2023-09-30T12:08:18;26.60;77.40
13798;DHT22;6970;51.340;3.240;2023-09-30T12:10:46;26.40;78.70
13798;DHT22;6970;51.340;3.240;2023-09-30T12:13:13;26.30;79.50
13798;DHT22;6970;51.340;3.240;2023-09-30T12:15:43;26.30;79.80
13798;DHT22;6970;51.340;3.240;2023-09-30T12:18:14;26.30;80.00
13798;DHT22;6970;51.340;3.240;2023-09-30T12:20:45;26.30;80.20
13798;DHT22;6970;51.340;3.240;2023-09-30T12:23:15;26.30;80.30
13798;DHT22;6970;51.340;3.240;2023-09-30T12:25:44;26.20;80.70
13798;DHT22;6970;51.340;3.240;2023-09-30T12:28:14;26.00;81.00
13798;DHT22;6970;51.340;3.240;2023-09-30T12:30:43;26.00;81.40
13798;DHT22;6970;51.340;3.240;2023-09-30T12:33:13;25.90;81.90
13798;DHT22;6970;51.340;3.240;2023-09-30T12:35:40;26.00;81.80
13798;DHT22;6970;51.340;3.240;2023-09-30T12:38:07;26.30;81.70
13798;DHT22;6970;51.340;3.240;2023-09-30T12:40:37;26.30;80.50
13798;DHT22;6970;51.340;3.240;2023-09-30T12:43:08;26.20;80.50
13798;DHT22;6970;51.340;3.240;2023-09-30T12:45:38;26.10;81.10
13798;DHT22;6970;51.340;3.240;2023-09-30T12:48:07;26.20;81.60
13798;DHT22;6970;51.340;3.240;2023-09-30T12:50:35;26.20;82.20
13798;DHT22;6970;51.340;3.240;2023-09-30T12:53:03;26.20;81.30
13798;DHT22;6970;51.340;3.240;2023-09-30T12:55:31;26.20;81.60
13798;DHT22;6970;51.340;3.240;2023-09-30T12:57:59;26.30;81.10
13798;DHT22;6970;51.340;3.240;2023-09-30T13:00:29;26.50;81.30
13798;DHT22;6970;51.340;3.240;2023-09-30T13:02:58;26.40;81.20
13798;DHT22;6970;51.340;3.240;2023-09-30T13:05:26;26.40;81.20
13798;DHT22;6970;51.340;3.240;2023-09-30T13:07:53;26.30;81.40
13798;DHT22;6970;51.340;3.240;2023-09-30T13:10:23;26.10;82.10
13798;DHT22;6970;51.340;3.240;2023-09-30T13:12:52;26.00;82.70
13798;DHT22;6970;51.340;3.240;2023-09-30T13:15:23;26.00;82.80
13798;DHT22;6970;51.340;3.240;2023-09-30T13:17:56;25.90;83.20
13798;DHT22;6970;51.340;3.240;2023-09-30T13:20:26;25.80;83.30
13798;DHT22;6970;51.340;3.240;2023-09-30T13:22:56;25.70;83.40
13798;DHT22;6970;51.340;3.240;2023-09-30T13:25:24;25.70;83.70
13798;DHT22;6970;51.340;3.240;2023-09-30T13:27:52;25.70;83.70
13798;DHT22;6970;51.340;3.240;2023-09-30T13:30:19;25.70;83.50
13798;DHT22;6970;51.340;3.240;2023-09-30T13:32:49;25.60;83.60
13798;DHT22;6970;51.340;3.240;2023-09-30T13:35:16;25.50;84.00
13798;DHT22;6970;51.340;3.240;2023-09-30T13:37:46;25.50;84.30
13798;DHT22;6970;51.340;3.240;2023-09-30T13:40:16;25.40;84.20
13798;DHT22;6970;51.340;3.240;2023-09-30T13:42:45;25.50;84.30
13798;DHT22;6970;51.340;3.240;2023-09-30T13:45:16;25.70;84.80
13798;DHT22;6970;51.340;3.240;2023-09-30T13:47:45;25.90;84.70
13798;DHT22;6970;51.340;3.240;2023-09-30T13:50:12;26.00;84.00
13798;DHT22;6970;51.340;3.240;2023-09-30T13:52:40;26.10;83.70
13798;DHT22;6970;51.340;3.240;2023-09-30T13:55:09;26.10;83.40
13798;DHT22;6970;51.340;3.240;2023-09-30T13:57:39;26.00;83.40
13798;DHT22;6970;51.340;3.240;2023-09-30T14:00:08;25.90;83.60
13798;DHT22;6970;51.340;3.240;2023-09-30T14:02:37;25.70;83.80
13798;DHT22;6970;51.340;3.240;2023-09-30T14:05:05;25.60;84.20
13798;DHT22;6970;51.340;3.240;2023-09-30T14:07:36;25.50;84.80
13798;DHT22;6970;51.340;3.240;2023-09-30T14:10:04;25.50;85.20
13798;DHT22;6970;51.340;3.240;2023-09-30T14:12:32;25.50;85.60
13798;DHT22;6970;51.340;3.240;2023-09-30T14:15:03;25.50;85.20
13798;DHT22;6970;51.340;3.240;2023-09-30T14:17:32;25.40;85.10
13798;DHT22;6970;51.340;3.240;2023-09-30T14:20:02;25.40;85.30
13798;DHT22;6970;51.340;3.240;2023-09-30T14:22:33;25.30;85.40
13798;DHT22;6970;51.340;3.240;2023-09-30T14:25:00;25.00;85.90
13798;DHT22;6970;51.340;3.240;2023-09-30T14:27:28;24.90;87.30
13798;DHT22;6970;51.340;3.240;2023-09-30T14:29:55;24.80;86.90
13798;DHT22;6970;51.340;3.240;2023-09-30T14:32:22;24.70;87.40
13798;DHT22;6970;51.340;3.240;2023-09-30T14:34:50;24.60;87.60
13798;DHT22;6970;51.340;3.240;2023-09-30T14:37:18;24.50;88.00
13798;DHT22;6970;51.340;3.240;2023-09-30T14:39:45;24.40;88.50
13798;DHT22;6970;51.340;3.240;2023-09-30T14:42:12;24.30;88.90
13798;DHT22;6970;51.340;3.240;2023-09-30T14:44:42;24.30;89.20
13798;DHT22;6970;51.340;3.240;2023-09-30T14:47:10;24.30;89.10
13798;DHT22;6970;51.340;3.240;2023-09-30T14:49:41;24.30;88.90
13798;DHT22;6970;51.340;3.240;2023-09-30T14:52:08;24.40;88.70
13798;DHT22;6970;51.340;3.240;2023-09-30T14:54:36;24.40;88.30
13798;DHT22;6970;51.340;3.240;2023-09-30T14:57:04;24.50;88.20
13798;DHT22;6970;51.340;3.240;2023-09-30T14:59:33;24.50;87.90
13798;DHT22;6970;51.340;3.240;2023-09-30T15:02:03;24.60;87.90
13798;DHT22;6970;51.340;3.240;2023-09-30T15:04:34;24.60;87.40
13798;DHT22;6970;51.340;3.240;2023-09-30T15:07:05;24.50;87.30
13798;DHT22;6970;51.340;3.240;2023-09-30T15:09:33;24.20;86.30
13798;DHT22;6970;51.340;3.240;2023-09-30T15:12:00;24.00;86.50
13798;DHT22;6970;51.340;3.240;2023-09-30T15:14:28;23.90;86.60
13798;DHT22;6970;51.340;3.240;2023-09-30T15:16:56;23.70;86.80
13798;DHT22;6970;51.340;3.240;2023-09-30T15:19:24;23.60;86.80
13798;DHT22;6970;51.340;3.240;2023-09-30T15:21:52;23.60;87.30
13798;DHT22;6970;51.340;3.240;2023-09-30T15:24:19;23.60;87.20
13798;DHT22;6970;51.340;3.240;2023-09-30T15:26:47;23.50;87.40
13798;DHT22;6970;51.340;3.240;2023-09-30T15:29:17;23.50;87.40
13798;DHT22;6970;51.340;3.240;2023-09-30T15:31:47;23.50;87.80
13798;DHT22;6970;51.340;3.240;2023-09-30T15:34:20;23.40;87.70
13798;DHT22;6970;51.340;3.240;2023-09-30T15:36:55;23.40;87.90
13798;DHT22;6970;51.340;3.240;2023-09-30T15:39:25;23.30;87.90
13798;DHT22;6970;51.340;3.240;2023-09-30T15:41:55;23.20;88.10
13798;DHT22;6970;51.340;3.240;2023-09-30T15:44:22;23.00;88.40
13798;DHT22;6970;51.340;3.240;2023-09-30T15:46:50;22.90;88.90
13798;DHT22;6970;51.340;3.240;2023-09-30T15:49:18;22.70;89.70
13798;DHT22;6970;51.340;3.240;2023-09-30T15:51:47;22.60;90.00
13798;DHT22;6970;51.340;3.240;2023-09-30T15:54:15;22.60;90.10
13798;DHT22;6970;51.340;3.240;2023-09-30T15:56:44;22.40;90.60
13798;DHT22;6970;51.340;3.240;2023-09-30T15:59:23;22.30;90.30
13798;DHT22;6970;51.340;3.240;2023-09-30T16:01:53;22.20;90.30
13798;DHT22;6970;51.340;3.240;2023-09-30T16:04:23;22.10;90.50
13798;DHT22;6970;51.340;3.240;2023-09-30T16:06:50;22.00;90.50
13798;DHT22;6970;51.340;3.240;2023-09-30T16:09:21;21.90;90.80
13798;DHT22;6970;51.340;3.240;2023-09-30T16:11:51;21.80;90.90